createdAt,value
2019-02-05T00:01:43.067Z,102298.34
2019-02-05T00:04:14.748Z,102293.94
2019-02-05T00:06:46.523Z,102293.06
2019-02-05T00:09:18.203Z,102289.55
2019-02-05T00:11:49.908Z,102288.66
2019-02-05T00:14:21.595Z,102293.06
2019-02-05T00:16:53.389Z,102295.27
2019-02-05T00:19:25.060Z,102294.84
2019-02-05T00:21:56.737Z,102290.41
2019-02-05T00:24:28.432Z,102287.77
2019-02-05T00:27:00.489Z,102290.41
2019-02-05T00:29:32.169Z,102287.34
2019-02-05T00:32:03.789Z,102281.61
2019-02-05T00:34:35.391Z,102279.41
2019-02-05T00:37:07.119Z,102278.52
2019-02-05T00:39:39.461Z,102274.13
2019-02-05T00:42:11.356Z,102271.03
2019-02-05T00:44:43.314Z,102275.02
2019-02-05T00:47:15.011Z,102268.84
2019-02-05T00:49:46.602Z,102267.52
2019-02-05T00:52:18.557Z,102259.16
2019-02-05T00:54:50.152Z,102254.75
2019-02-05T00:57:21.859Z,102251.22
2019-02-05T00:59:53.524Z,102252.55
2019-02-05T01:02:25.141Z,102252.56
2019-02-05T01:04:57.105Z,102246.38
2019-02-05T01:07:28.813Z,102242.88
2019-02-05T01:10:00.492Z,102244.21
2019-02-05T01:12:32.202Z,102239.34
2019-02-05T01:15:04.430Z,102239.35
2019-02-05T01:17:37.613Z,102233.20
2019-02-05T01:20:11.938Z,102225.27
2019-02-05T01:22:43.651Z,102229.66
2019-02-05T01:25:16.993Z,102218.66
2019-02-05T01:27:48.699Z,102216.91
2019-02-05T01:30:22.396Z,102211.20
2019-02-05T01:32:54.098Z,102205.92
2019-02-05T01:35:25.791Z,102208.11
2019-02-05T01:37:57.504Z,102209.44
2019-02-05T01:40:29.499Z,102200.63
2019-02-05T01:43:01.213Z,102206.80
2019-02-05T01:45:32.925Z,102202.83
2019-02-05T01:48:04.628Z,102198.89
2019-02-05T01:50:36.315Z,102197.56
2019-02-05T01:53:08.302Z,102200.20
2019-02-05T01:55:40.074Z,102199.31
2019-02-05T01:58:11.758Z,102193.15
2019-02-05T02:00:43.366Z,102196.70
2019-02-05T02:03:15.107Z,102191.86
2019-02-05T02:05:47.319Z,102188.78
2019-02-05T02:08:19.017Z,102185.70
2019-02-05T02:10:50.728Z,102190.98
2019-02-05T02:13:22.420Z,102187.46
2019-02-05T02:15:54.121Z,102189.66
2019-02-05T02:18:26.092Z,102183.48
2019-02-05T02:20:57.700Z,102190.98
2019-02-05T02:23:29.406Z,102193.15
2019-02-05T02:26:01.093Z,102185.70
2019-02-05T02:28:32.817Z,102185.27
2019-02-05T02:31:04.682Z,102190.09
2019-02-05T02:33:36.449Z,102191.40
2019-02-05T02:36:08.140Z,102185.26
2019-02-05T02:38:40.849Z,102185.25
2019-02-05T02:41:13.045Z,102181.75
2019-02-05T02:43:44.771Z,102178.22
2019-02-05T02:46:16.472Z,102168.53
2019-02-05T02:48:48.191Z,102159.31
2019-02-05T02:51:19.858Z,102150.52
2019-02-05T02:53:51.552Z,102154.45
2019-02-05T02:56:23.243Z,102144.34
2019-02-05T02:58:54.962Z,102136.88
2019-02-05T03:01:26.763Z,102136.00
2019-02-05T03:03:58.479Z,102134.66
2019-02-05T03:06:30.150Z,102138.19
2019-02-05T03:09:02.147Z,102139.92
2019-02-05T03:11:35.433Z,102136.42
2019-02-05T03:14:08.118Z,102128.95
2019-02-05T03:16:40.087Z,102123.21
2019-02-05T03:19:11.856Z,102118.81
2019-02-05T03:21:44.303Z,102116.17
2019-02-05T03:24:16.293Z,102111.80
2019-02-05T03:26:48.061Z,102117.97
2019-02-05T03:29:19.755Z,102112.69
2019-02-05T03:31:51.446Z,102122.80
2019-02-05T03:34:23.086Z,102118.41
2019-02-05T03:36:54.936Z,102123.23
2019-02-05T03:39:26.647Z,102109.59
2019-02-05T03:41:58.324Z,102099.04
2019-02-05T03:44:30.041Z,102089.81
2019-02-05T03:47:01.772Z,102086.73
2019-02-05T03:49:33.834Z,102090.27
2019-02-05T03:52:14.761Z,102092.89
2019-02-05T03:55:38.602Z,102099.50
2019-02-05T03:58:43.420Z,102098.17
2019-02-05T04:01:49.371Z,102093.80
2019-02-05T04:05:05.900Z,102095.11
2019-02-05T04:08:22.173Z,102093.77
2019-02-05T04:11:49.851Z,102093.33
2019-02-05T04:15:10.753Z,102097.31
2019-02-05T04:18:38.473Z,102083.23
2019-02-05T04:22:01.037Z,102075.77
2019-02-05T04:25:13.607Z,102077.95
2019-02-05T04:28:38.273Z,102071.80
2019-02-05T04:31:50.396Z,102078.82
2019-02-05T04:35:10.572Z,102074.86
2019-02-05T04:38:15.719Z,102066.08
2019-02-05T04:41:14.266Z,102068.71
2019-02-05T04:44:15.860Z,102072.25
2019-02-05T04:47:33.635Z,102077.06
2019-02-05T04:50:13.908Z,102075.75
2019-02-05T04:53:20.186Z,102082.78
2019-02-05T04:56:15.147Z,102072.25
2019-02-05T04:59:22.398Z,102074.00
2019-02-05T05:02:22.604Z,102067.84
2019-02-05T05:05:31.697Z,102060.78
2019-02-05T05:08:38.777Z,102055.94
2019-02-05T05:11:10.455Z,102066.51
2019-02-05T05:13:42.517Z,102065.63
2019-02-05T05:16:14.342Z,102065.19
2019-02-05T05:18:46.279Z,102064.30
2019-02-05T05:21:18.072Z,102062.99
2019-02-05T05:23:50.014Z,102060.36
2019-02-05T05:26:21.976Z,102055.97
2019-02-05T05:28:53.759Z,102058.17
2019-02-05T05:31:25.388Z,102059.92
2019-02-05T05:33:57.098Z,102063.02
2019-02-05T05:36:28.802Z,102059.92
2019-02-05T05:39:00.882Z,102062.57
2019-02-05T05:41:34.135Z,102061.27
2019-02-05T05:44:05.849Z,102070.94
2019-02-05T05:46:37.653Z,102077.52
2019-02-05T05:49:09.453Z,102084.53
2019-02-05T05:51:41.494Z,102081.47
2019-02-05T05:54:13.507Z,102084.56
2019-02-05T05:56:45.189Z,102086.30
2019-02-05T05:59:16.977Z,102092.88
2019-02-05T06:01:48.760Z,102087.59
2019-02-05T06:04:20.487Z,102088.04
2019-02-05T06:06:52.263Z,102087.16
2019-02-05T06:09:24.976Z,102085.38
2019-02-05T06:11:56.663Z,102085.81
2019-02-05T06:14:28.357Z,102081.86
2019-02-05T06:16:59.995Z,102078.36
2019-02-05T06:19:31.978Z,102074.41
2019-02-05T06:22:03.678Z,102075.28
2019-02-05T06:24:35.305Z,102076.14
2019-02-05T06:27:06.995Z,102081.01
2019-02-05T06:29:38.802Z,102081.90
2019-02-05T06:32:10.750Z,102075.30
2019-02-05T06:34:42.474Z,102081.01
2019-02-05T06:37:14.331Z,102076.60
2019-02-05T06:39:46.261Z,102077.47
2019-02-05T06:42:17.974Z,102072.65
2019-02-05T06:44:49.977Z,102077.03
2019-02-05T06:47:21.703Z,102071.77
2019-02-05T06:49:53.645Z,102072.62
2019-02-05T06:52:25.363Z,102061.67
2019-02-05T06:54:57.301Z,102063.85
2019-02-05T06:57:29.189Z,102059.03
2019-02-05T07:00:00.806Z,102067.80
2019-02-05T07:02:32.695Z,102055.50
2019-02-05T07:05:04.368Z,102050.23
2019-02-05T07:07:36.216Z,102033.11
2019-02-05T07:10:10.827Z,102032.67
2019-02-05T07:12:42.473Z,102031.35
2019-02-05T07:15:15.158Z,102029.61
2019-02-05T07:17:49.919Z,102030.47
2019-02-05T07:20:20.230Z,102041.45
2019-02-05T07:22:52.350Z,102048.95
2019-02-05T07:25:28.394Z,102050.25
2019-02-05T07:28:00.552Z,102042.81
2019-02-05T07:30:32.707Z,102048.08
2019-02-05T07:33:04.403Z,102047.20
2019-02-05T07:35:36.165Z,102056.84
2019-02-05T07:38:07.884Z,102055.43
2019-02-05T07:40:39.661Z,102047.54
2019-02-05T07:43:11.837Z,102054.52
2019-02-05T07:45:43.520Z,102060.16
2019-02-05T07:48:15.173Z,102050.91
2019-02-05T07:50:47.224Z,102055.16
2019-02-05T07:53:18.941Z,102049.33
2019-02-05T07:55:50.637Z,102045.28
2019-02-05T07:58:23.320Z,102045.80
2019-02-05T08:00:55.089Z,102047.02
2019-02-05T08:03:26.892Z,102051.85
2019-02-05T08:05:58.790Z,102049.95
2019-02-05T08:08:30.518Z,102045.34
2019-02-05T08:11:02.381Z,102048.44
2019-02-05T08:13:34.134Z,102049.61
2019-02-05T08:16:05.890Z,102052.69
2019-02-05T08:18:37.586Z,102050.52
2019-02-05T08:21:09.539Z,102055.12
2019-02-05T08:23:41.445Z,102057.38
2019-02-05T08:26:13.396Z,102055.74
2019-02-05T08:28:45.167Z,102058.13
2019-02-05T08:31:16.894Z,102050.39
2019-02-05T08:33:48.863Z,102040.73
2019-02-05T08:36:21.543Z,102045.00
2019-02-05T08:38:53.340Z,102045.39
2019-02-05T08:41:24.955Z,102049.34
2019-02-05T08:43:56.669Z,102047.22
2019-02-05T08:46:28.403Z,102039.44
2019-02-05T08:49:00.203Z,102042.85
2019-02-05T08:51:31.866Z,102038.17
2019-02-05T08:54:03.633Z,102044.55
2019-02-05T08:56:35.536Z,102045.36
2019-02-05T08:59:07.318Z,102034.63
2019-02-05T09:01:39.513Z,102035.27
2019-02-05T09:04:11.401Z,102029.91
2019-02-05T09:06:43.348Z,102044.87
2019-02-05T09:09:15.139Z,102044.48
2019-02-05T09:11:46.913Z,102057.26
2019-02-05T09:14:18.521Z,102056.05
2019-02-05T09:16:50.148Z,102040.72
2019-02-05T09:19:21.805Z,102039.69
2019-02-05T09:21:53.574Z,102043.83
2019-02-05T09:24:25.302Z,102033.15
2019-02-05T09:27:06.025Z,102049.45
2019-02-05T09:29:37.736Z,102051.52
2019-02-05T09:32:09.555Z,102045.88
2019-02-05T09:34:41.404Z,102049.17
2019-02-05T09:37:13.316Z,102054.75
2019-02-05T09:39:45.015Z,102059.09
2019-02-05T09:42:16.620Z,102063.53
2019-02-05T09:44:48.378Z,102069.59
2019-02-05T09:47:20.033Z,102056.52
2019-02-05T09:49:51.652Z,102057.61
2019-02-05T09:52:23.318Z,102055.30
2019-02-05T09:54:55.284Z,102051.73
2019-02-05T09:57:27.020Z,102051.43
2019-02-05T09:59:58.728Z,102051.05
2019-02-05T10:02:30.354Z,102046.52
2019-02-05T10:05:02.068Z,102054.22
2019-02-05T10:07:34.009Z,102050.42
2019-02-05T10:10:06.171Z,102037.06
2019-02-05T10:12:37.842Z,102029.89
2019-02-05T10:15:13.067Z,102026.05
2019-02-05T10:17:44.774Z,102030.88
2019-02-05T10:20:16.617Z,102027.56
2019-02-05T10:22:48.430Z,102033.29
2019-02-05T10:25:20.206Z,102029.55
2019-02-05T10:27:51.813Z,102023.11
2019-02-05T10:30:25.894Z,102008.91
2019-02-05T10:32:57.687Z,102007.60
2019-02-05T10:35:29.397Z,102013.95
2019-02-05T10:38:01.082Z,102009.44
2019-02-05T10:40:33.845Z,102022.87
2019-02-05T10:43:05.856Z,102012.59
2019-02-05T10:45:37.529Z,102016.72
2019-02-05T10:48:10.383Z,102015.55
2019-02-05T10:50:42.084Z,102005.65
2019-02-05T10:53:13.910Z,102010.01
2019-02-05T10:55:45.550Z,102013.06
2019-02-05T10:58:17.213Z,102014.16
2019-02-05T11:00:49.109Z,102013.78
2019-02-05T11:03:20.885Z,102011.50
2019-02-05T11:05:52.676Z,102008.89
2019-02-05T11:10:54.904Z,102017.09
2019-02-05T11:13:26.670Z,102010.95
2019-02-05T11:15:58.392Z,102005.49
2019-02-05T11:18:30.510Z,102002.99
2019-02-05T11:21:04.310Z,102002.78
2019-02-05T11:23:35.693Z,102003.98
2019-02-05T11:26:07.419Z,102011.83
2019-02-05T11:28:39.492Z,102010.25
2019-02-05T11:31:11.350Z,102003.00
2019-02-05T11:33:43.280Z,102006.77
2019-02-05T11:36:14.956Z,102006.69
2019-02-05T11:38:46.650Z,102007.95
2019-02-05T11:41:18.290Z,102006.27
2019-02-05T11:43:51.059Z,102012.11
2019-02-05T11:46:22.864Z,102012.72
2019-02-05T11:48:54.972Z,102003.04
2019-02-05T11:51:26.678Z,102003.11
2019-02-05T11:53:58.373Z,102004.55
2019-02-05T11:56:30.082Z,102008.75
2019-02-05T11:59:01.753Z,102001.73
2019-02-05T12:01:39.023Z,102003.18
2019-02-05T12:04:08.619Z,102004.03
2019-02-05T12:06:40.518Z,101999.87
2019-02-05T12:09:24.156Z,102002.06
2019-02-05T12:11:56.002Z,102003.54
2019-02-05T12:14:28.096Z,101994.20
2019-02-05T12:16:59.860Z,101989.63
2019-02-05T12:19:31.565Z,101993.93
2019-02-05T12:22:03.259Z,101988.73
2019-02-05T12:24:34.942Z,101991.11
2019-02-05T12:27:06.552Z,101984.67
2019-02-05T12:29:38.235Z,101982.98
2019-02-05T12:32:10.154Z,101976.81
2019-02-05T12:34:43.289Z,101977.12
2019-02-05T12:37:14.911Z,101968.30
2019-02-05T12:39:46.614Z,101973.46
2019-02-05T12:42:18.398Z,101979.83
2019-02-05T12:44:50.085Z,101979.61
2019-02-05T12:47:22.077Z,101968.20
2019-02-05T12:49:53.790Z,101972.77
2019-02-05T12:52:25.449Z,101970.93
2019-02-05T12:54:57.137Z,101960.77
2019-02-05T12:57:28.778Z,101959.84
2019-02-05T13:00:00.927Z,101964.87
2019-02-05T13:02:32.942Z,101955.56
2019-02-05T13:05:04.629Z,101958.76
2019-02-05T13:07:36.322Z,101952.80
2019-02-05T13:10:09.696Z,101957.28
2019-02-05T13:12:41.681Z,101947.94
2019-02-05T13:15:13.520Z,101948.16
2019-02-05T13:17:46.292Z,101945.29
2019-02-05T13:20:20.694Z,101950.55
2019-02-05T13:22:52.439Z,101952.77
2019-02-05T13:25:25.564Z,101955.00
2019-02-05T13:27:57.262Z,101953.14
2019-02-05T13:30:30.524Z,101963.02
2019-02-05T13:33:02.244Z,101961.38
2019-02-05T13:35:34.306Z,101957.53
2019-02-05T13:38:06.378Z,101956.59
2019-02-05T13:40:38.074Z,101957.48
2019-02-05T13:43:10.039Z,101960.93
2019-02-05T13:45:41.759Z,101955.80
2019-02-05T13:48:13.840Z,101966.54
2019-02-05T13:50:45.631Z,101955.64
2019-02-05T13:53:17.400Z,101957.28
2019-02-05T13:55:49.092Z,101970.72
2019-02-05T13:58:20.804Z,101961.43
2019-02-05T14:00:54.554Z,101969.70
2019-02-05T14:03:26.226Z,101966.31
2019-02-05T14:05:57.911Z,101974.23
2019-02-05T14:08:29.598Z,101971.52
2019-02-05T14:11:01.300Z,101971.94
2019-02-05T14:13:33.288Z,101974.61
2019-02-05T14:16:04.977Z,101958.61
2019-02-05T14:18:36.708Z,101958.55
2019-02-05T14:21:08.450Z,101965.31
2019-02-05T14:23:40.159Z,101970.24
2019-02-05T14:26:12.144Z,101967.11
2019-02-05T14:28:43.854Z,101971.03
2019-02-05T14:31:15.569Z,101971.63
2019-02-05T14:33:47.273Z,101969.61
2019-02-05T14:36:18.892Z,101972.59
2019-02-05T14:38:50.980Z,101979.33
2019-02-05T14:41:22.600Z,101975.39
2019-02-05T14:43:54.320Z,101983.84
2019-02-05T14:46:25.976Z,101982.89
2019-02-05T14:48:57.684Z,101982.94
2019-02-05T14:51:29.651Z,101989.16
2019-02-05T14:54:01.400Z,101990.48
2019-02-05T14:56:33.140Z,101989.25
2019-02-05T14:59:04.888Z,101992.77
2019-02-05T15:01:43.064Z,101991.52
2019-02-05T15:04:10.176Z,101984.95
2019-02-05T15:06:41.856Z,101991.62
2019-02-05T15:09:13.550Z,101994.56
2019-02-05T15:11:45.216Z,101986.80
2019-02-05T15:14:16.916Z,101995.56
2019-02-05T15:16:48.596Z,101988.22
2019-02-05T15:19:20.307Z,101995.18
2019-02-05T15:21:52.005Z,101994.56
2019-02-05T15:24:23.688Z,101994.75
2019-02-05T15:26:55.363Z,101987.80
2019-02-05T15:29:27.043Z,101989.39
2019-02-05T15:31:58.707Z,101989.39
2019-02-05T15:34:30.669Z,101987.84
2019-02-05T15:37:02.368Z,101990.50
2019-02-05T15:39:34.088Z,101984.72
2019-02-05T15:42:05.754Z,101985.14
2019-02-05T15:44:37.458Z,101989.22
2019-02-05T15:47:09.152Z,101984.86
2019-02-05T15:49:41.274Z,101983.16
2019-02-05T15:52:13.214Z,101985.94
2019-02-05T15:54:44.902Z,101983.00
2019-02-05T15:57:16.610Z,101986.13
2019-02-05T15:59:48.333Z,101991.95
2019-02-05T16:02:20.021Z,101989.25
2019-02-05T16:04:51.712Z,101991.95
2019-02-05T16:07:23.404Z,101993.66
2019-02-05T16:09:55.073Z,102001.57
2019-02-05T16:12:26.766Z,101990.50
2019-02-05T16:14:58.386Z,101991.05
2019-02-05T16:17:30.088Z,101993.31
2019-02-05T16:20:01.783Z,101993.88
2019-02-05T16:22:34.595Z,101996.61
2019-02-05T16:25:07.483Z,101998.45
2019-02-05T16:27:39.406Z,101990.92
2019-02-05T16:30:17.391Z,101984.84
2019-02-05T16:32:49.076Z,101989.21
2019-02-05T16:35:20.721Z,101997.98
2019-02-05T16:37:53.222Z,101992.64
2019-02-05T16:40:26.233Z,101998.41
2019-02-05T16:42:58.302Z,102003.28
2019-02-05T16:45:30.030Z,101999.73
2019-02-05T16:48:01.708Z,101995.72
2019-02-05T16:50:35.903Z,101997.16
2019-02-05T16:53:08.366Z,102002.86
2019-02-05T16:55:40.190Z,102001.10
2019-02-05T16:58:11.878Z,101997.55
2019-02-05T17:00:43.559Z,101999.34
2019-02-05T17:03:15.644Z,101997.51
2019-02-05T17:05:47.340Z,101997.89
2019-02-05T17:08:19.028Z,102008.07
2019-02-05T17:10:50.721Z,102014.78
2019-02-05T17:13:22.413Z,102009.45
2019-02-05T17:15:54.128Z,102008.92
2019-02-05T17:18:25.826Z,102016.96
2019-02-05T17:20:57.578Z,102015.48
2019-02-05T17:23:29.594Z,102018.08
2019-02-05T17:26:01.369Z,102018.52
2019-02-05T17:28:33.415Z,102018.08
2019-02-05T17:31:05.136Z,102012.78
2019-02-05T17:33:37.862Z,102013.68
2019-02-05T17:36:10.124Z,102016.72
2019-02-05T17:38:41.745Z,102012.83
2019-02-05T17:41:13.464Z,102017.23
2019-02-05T17:43:46.334Z,102024.20
2019-02-05T17:46:18.181Z,102018.81
2019-02-05T17:48:51.318Z,102027.66
2019-02-05T17:51:23.235Z,102026.85
2019-02-05T17:53:56.409Z,102024.59
2019-02-05T17:56:28.411Z,102023.34
2019-02-05T17:59:00.079Z,102019.84
2019-02-05T18:01:31.797Z,102022.36
2019-02-05T18:04:03.502Z,102019.84
2019-02-05T18:06:35.196Z,102017.14
2019-02-05T18:09:08.283Z,102019.75
2019-02-05T18:11:42.271Z,102024.67
2019-02-05T18:14:15.175Z,102018.09
2019-02-05T18:16:46.854Z,102012.83
2019-02-05T18:19:18.535Z,102019.37
2019-02-05T18:21:50.582Z,102023.30
2019-02-05T18:24:22.203Z,102026.77
2019-02-05T18:26:54.055Z,102029.46
2019-02-05T18:29:28.866Z,102027.23
2019-02-05T18:32:00.610Z,102028.95
2019-02-05T18:34:32.354Z,102033.44
2019-02-05T18:37:05.278Z,102025.95
2019-02-05T18:39:39.952Z,102029.89
2019-02-05T18:42:11.070Z,102029.84
2019-02-05T18:44:44.313Z,102031.64
2019-02-05T18:47:16.272Z,102033.44
2019-02-05T18:49:48.036Z,102026.30
2019-02-05T18:52:20.345Z,102030.19
2019-02-05T18:54:54.968Z,102026.63
2019-02-05T18:57:30.163Z,102029.30
2019-02-05T19:00:02.246Z,102024.50
2019-02-05T19:02:35.956Z,102027.11
2019-02-05T19:05:10.440Z,102027.54
2019-02-05T19:07:44.582Z,102031.09
2019-02-05T19:10:18.503Z,102028.91
2019-02-05T19:12:51.714Z,102032.41
2019-02-05T19:15:25.505Z,102028.91
2019-02-05T19:17:57.429Z,102028.87
2019-02-05T19:20:32.236Z,102038.57
2019-02-05T19:23:04.559Z,102043.87
2019-02-05T19:25:55.183Z,102039.42
2019-02-05T19:28:36.122Z,102042.08
2019-02-05T19:31:17.303Z,102043.79
2019-02-05T19:33:49.176Z,102048.20
2019-02-05T19:36:20.900Z,102051.33
2019-02-05T19:38:53.681Z,102044.77
2019-02-05T19:41:25.387Z,102043.80
2019-02-05T19:43:57.103Z,102047.77
2019-02-05T19:46:46.349Z,102048.62
2019-02-05T19:49:30.320Z,102048.62
2019-02-05T19:52:02.443Z,102050.30
2019-02-05T19:54:34.162Z,102049.05
2019-02-05T19:57:05.951Z,102049.91
2019-02-05T19:59:37.786Z,102046.36
2019-02-05T20:02:10.790Z,102056.89
2019-02-05T20:04:43.127Z,102049.44
2019-02-05T20:07:15.034Z,102045.88
2019-02-05T20:09:47.973Z,102047.64
2019-02-05T20:12:22.471Z,102047.22
2019-02-05T20:14:55.191Z,102046.27
2019-02-05T20:17:27.185Z,102046.61
2019-02-05T20:19:59.129Z,102046.13
2019-02-05T20:22:30.841Z,102050.20
2019-02-05T20:25:04.488Z,102049.78
2019-02-05T20:27:38.832Z,102054.14
2019-02-05T20:30:12.568Z,102053.28
2019-02-05T20:32:44.315Z,102056.41
2019-02-05T20:35:16.246Z,102050.20
2019-02-05T20:37:48.384Z,102054.70
2019-02-05T20:40:20.249Z,102054.17
2019-02-05T20:42:52.512Z,102057.27
2019-02-05T20:45:25.602Z,102055.52
2019-02-05T20:47:57.640Z,102056.80
2019-02-05T20:50:29.469Z,102053.28
2019-02-05T20:53:13.644Z,102060.26
2019-02-05T20:55:41.807Z,102066.94
2019-02-05T20:58:13.783Z,102061.30
2019-02-05T21:00:46.567Z,102064.80
2019-02-05T21:03:19.602Z,102062.48
2019-02-05T21:05:51.386Z,102064.23
2019-02-05T21:08:23.465Z,102066.80
2019-02-05T21:10:57.726Z,102070.45
2019-02-05T21:13:29.469Z,102077.84
2019-02-05T21:16:01.677Z,102079.30
2019-02-05T21:18:33.460Z,102078.88
2019-02-05T21:21:08.736Z,102082.30
2019-02-05T21:23:40.927Z,102085.85
2019-02-05T21:26:12.769Z,102084.44
2019-02-05T21:28:44.600Z,102077.46
2019-02-05T21:31:16.453Z,102077.28
2019-02-05T21:33:48.267Z,102080.02
2019-02-05T21:36:20.617Z,102075.61
2019-02-05T21:38:52.694Z,102075.53
2019-02-05T21:41:24.520Z,102082.16
2019-02-05T21:43:58.224Z,102089.30
2019-02-05T21:46:31.585Z,102082.67
2019-02-05T21:49:03.336Z,102087.98
2019-02-05T21:51:40.480Z,102082.59
2019-02-05T21:54:09.722Z,102080.02
2019-02-05T21:56:41.562Z,102079.94
2019-02-05T21:59:14.810Z,102079.46
2019-02-05T22:01:46.675Z,102079.03
2019-02-05T22:04:26.714Z,102084.86
2019-02-05T22:06:51.857Z,102077.80
2019-02-05T22:09:23.611Z,102084.82
2019-02-05T22:11:55.488Z,102082.24
2019-02-05T22:14:28.253Z,102083.48
2019-02-05T22:16:59.935Z,102081.64
2019-02-05T22:19:31.690Z,102084.66
2019-02-05T22:22:03.448Z,102076.75
2019-02-05T22:24:35.252Z,102081.64
2019-02-05T22:27:07.240Z,102080.79
2019-02-05T22:29:38.860Z,102079.46
2019-02-05T22:32:10.653Z,102074.14
2019-02-05T22:34:42.485Z,102071.92
2019-02-05T22:37:14.370Z,102066.56
2019-02-05T22:39:46.241Z,102068.31
2019-02-05T22:42:17.931Z,102070.97
2019-02-05T22:44:49.783Z,102061.20
2019-02-05T22:47:21.543Z,102062.62
2019-02-05T22:49:53.315Z,102061.25
2019-02-05T22:52:26.117Z,102053.58
2019-02-05T22:54:57.799Z,102053.48
2019-02-05T22:57:31.662Z,102055.80
2019-02-05T23:00:02.910Z,102051.95
2019-02-05T23:02:39.040Z,102048.88
2019-02-05T23:05:33.872Z,102052.86
2019-02-05T23:08:05.687Z,102051.11
2019-02-05T23:11:03.330Z,102051.11
2019-02-05T23:13:34.359Z,102052.85
2019-02-05T23:16:23.494Z,102052.77
2019-02-05T23:18:55.285Z,102049.17
2019-02-05T23:21:27.079Z,102053.48
2019-02-05T23:23:59.172Z,102053.11
2019-02-05T23:26:31.893Z,102057.13
2019-02-05T23:29:03.609Z,102060.68
2019-02-05T23:31:35.639Z,102065.52
2019-02-05T23:34:07.375Z,102061.45
2019-02-05T23:36:39.483Z,102052.57
2019-02-05T23:39:11.391Z,102059.12
2019-02-05T23:41:43.264Z,102058.22
2019-02-05T23:44:14.934Z,102052.49
2019-02-05T23:46:46.697Z,102062.58
2019-02-05T23:49:18.609Z,102056.84
2019-02-05T23:51:50.226Z,102057.36
2019-02-05T23:54:23.040Z,102064.33
2019-02-05T23:56:54.798Z,102067.89
2019-02-05T23:59:26.520Z,102070.41
